sensor_id;sensor_type;location;lat;lon;timestamp;pressure;altitude;pressure_sealevel;temperature;humidity
71697;BME280;68167;59.120;37.898;2023-07-28T00:01:50;98758.78;;;17.17;79.91
71697;BME280;68167;59.120;37.898;2023-07-28T00:04:17;98785.59;;;17.34;80.03
71697;BME280;68167;59.120;37.898;2023-07-28T00:06:43;98739.34;;;17.11;80.14
71697;BME280;68167;59.120;37.898;2023-07-28T00:09:09;98769.50;;;17.26;79.90
71697;BME280;68167;59.120;37.898;2023-07-28T00:11:36;98766.66;;;17.22;80.29
71697;BME280;68167;59.120;37.898;2023-07-28T00:14:02;98741.63;;;17.01;80.19
71697;BME280;68167;59.120;37.898;2023-07-28T00:16:31;98782.47;;;17.24;80.48
71697;BME280;68167;59.120;37.898;2023-07-28T00:18:59;98785.66;;;17.17;80.59
71697;BME280;68167;59.120;37.898;2023-07-28T00:21:26;98783.34;;;17.07;80.75
71697;BME280;68167;59.120;37.898;2023-07-28T00:23:52;98815.69;;;17.28;80.81
71697;BME280;68167;59.120;37.898;2023-07-28T00:26:19;98765.31;;;17.07;80.91
71697;BME280;68167;59.120;37.898;2023-07-28T00:28:46;98794.31;;;17.31;80.94
71697;BME280;68167;59.120;37.898;2023-07-28T00:31:15;98756.13;;;17.08;81.03
71697;BME280;68167;59.120;37.898;2023-07-28T00:33:41;98773.44;;;17.28;80.97
71697;BME280;68167;59.120;37.898;2023-07-28T00:36:08;98772.31;;;17.29;80.93
71697;BME280;68167;59.120;37.898;2023-07-28T00:38:35;98723.59;;;17.01;81.01
71697;BME280;68167;59.120;37.898;2023-07-28T00:41:01;98761.69;;;17.33;80.99
71697;BME280;68167;59.120;37.898;2023-07-28T00:43:27;98725.13;;;17.11;80.84
71697;BME280;68167;59.120;37.898;2023-07-28T00:45:54;98754.56;;;17.37;80.78
71697;BME280;68167;59.120;37.898;2023-07-28T00:48:21;98732.44;;;17.31;80.54
71697;BME280;68167;59.120;37.898;2023-07-28T00:50:49;98702.63;;;17.16;80.81
71697;BME280;68167;59.120;37.898;2023-07-28T00:53:18;98735.53;;;17.42;80.62
71697;BME280;68167;59.120;37.898;2023-07-28T00:55:46;98715.16;;;17.32;81.03
71697;BME280;68167;59.120;37.898;2023-07-28T00:58:13;98689.91;;;17.25;80.84
71697;BME280;68167;59.120;37.898;2023-07-28T01:00:40;98715.56;;;17.43;80.73
71697;BME280;68167;59.120;37.898;2023-07-28T01:03:07;98682.63;;;17.25;81.04
71697;BME280;68167;59.120;37.898;2023-07-28T01:06:08;98701.13;;;17.48;80.69
71697;BME280;68167;59.120;37.898;2023-07-28T01:08:41;98713.72;;;17.56;81.05
71697;BME280;68167;59.120;37.898;2023-07-28T01:11:08;98698.56;;;17.51;81.17
71697;BME280;68167;59.120;37.898;2023-07-28T01:13:34;98661.69;;;17.31;80.94
71697;BME280;68167;59.120;37.898;2023-07-28T01:16:01;98668.19;;;17.30;80.51
71697;BME280;68167;59.120;37.898;2023-07-28T01:18:27;98663.47;;;17.27;81.01
71697;BME280;68167;59.120;37.898;2023-07-28T01:20:56;98688.81;;;17.47;81.11
71697;BME280;68167;59.120;37.898;2023-07-28T01:23:44;98677.66;;;17.36;81.05
71697;BME280;68167;59.120;37.898;2023-07-28T01:26:16;98702.84;;;17.52;81.30
71697;BME280;68167;59.120;37.898;2023-07-28T01:28:43;98657.09;;;17.31;80.88
71697;BME280;68167;59.120;37.898;2023-07-28T01:31:11;98690.19;;;17.53;80.60
71697;BME280;68167;59.120;37.898;2023-07-28T01:33:37;98677.56;;;17.44;80.88
71697;BME280;68167;59.120;37.898;2023-07-28T01:36:04;98696.13;;;17.58;80.78
71697;BME280;68167;59.120;37.898;2023-07-28T01:38:30;98705.41;;;17.69;80.82
71697;BME280;68167;59.120;37.898;2023-07-28T01:40:57;98691.94;;;17.69;80.99
71697;BME280;68167;59.120;37.898;2023-07-28T01:43:23;98621.34;;;17.31;80.67
71697;BME280;68167;59.120;37.898;2023-07-28T01:45:50;98626.13;;;17.46;80.47
71697;BME280;68167;59.120;37.898;2023-07-28T01:48:16;98639.16;;;17.56;80.55
71697;BME280;68167;59.120;37.898;2023-07-28T01:50:42;98631.84;;;17.57;80.55
71697;BME280;68167;59.120;37.898;2023-07-28T01:53:09;98662.38;;;17.82;80.32
71697;BME280;68167;59.120;37.898;2023-07-28T01:55:35;98655.75;;;17.79;80.20
71697;BME280;68167;59.120;37.898;2023-07-28T01:58:02;98626.34;;;17.74;80.13
71697;BME280;68167;59.120;37.898;2023-07-28T02:00:29;98576.25;;;17.49;80.05
71697;BME280;68167;59.120;37.898;2023-07-28T02:02:56;98620.88;;;17.83;80.10
71697;BME280;68167;59.120;37.898;2023-07-28T02:05:24;98585.84;;;17.70;80.16
71697;BME280;68167;59.120;37.898;2023-07-28T02:07:50;98602.72;;;17.92;79.93
71697;BME280;68167;59.120;37.898;2023-07-28T02:10:17;98599.56;;;17.90;80.10
71697;BME280;68167;59.120;37.898;2023-07-28T02:12:43;98596.44;;;17.88;80.00
71697;BME280;68167;59.120;37.898;2023-07-28T02:15:11;98607.31;;;17.91;79.92
71697;BME280;68167;59.120;37.898;2023-07-28T02:17:37;98539.16;;;17.54;79.86
71697;BME280;68167;59.120;37.898;2023-07-28T02:20:04;98590.94;;;17.84;80.16
71697;BME280;68167;59.120;37.898;2023-07-28T02:22:31;98544.88;;;17.53;80.08
71697;BME280;68167;59.120;37.898;2023-07-28T02:24:58;98600.13;;;17.83;79.97
71697;BME280;68167;59.120;37.898;2023-07-28T02:27:30;98600.91;;;17.84;80.07
71697;BME280;68167;59.120;37.898;2023-07-28T02:29:56;98616.06;;;17.88;80.08
71697;BME280;68167;59.120;37.898;2023-07-28T02:32:23;98605.19;;;17.85;79.93
71697;BME280;68167;59.120;37.898;2023-07-28T02:34:50;98603.38;;;17.89;80.08
71697;BME280;68167;59.120;37.898;2023-07-28T02:37:16;98586.78;;;17.87;80.21
71697;BME280;68167;59.120;37.898;2023-07-28T02:39:46;98594.53;;;17.88;79.98
71697;BME280;68167;59.120;37.898;2023-07-28T02:42:14;98557.69;;;17.68;79.84
71697;BME280;68167;59.120;37.898;2023-07-28T02:44:41;98552.63;;;17.66;80.12
71697;BME280;68167;59.120;37.898;2023-07-28T02:47:07;98566.00;;;17.75;80.05
71697;BME280;68167;59.120;37.898;2023-07-28T02:49:34;98592.63;;;18.01;80.10
71697;BME280;68167;59.120;37.898;2023-07-28T02:52:01;98578.50;;;17.92;80.34
71697;BME280;68167;59.120;37.898;2023-07-28T02:54:29;98534.09;;;17.65;80.28
71697;BME280;68167;59.120;37.898;2023-07-28T02:56:55;98608.25;;;18.07;80.20
71697;BME280;68167;59.120;37.898;2023-07-28T02:59:22;98563.09;;;17.80;80.14
71697;BME280;68167;59.120;37.898;2023-07-28T03:01:52;98590.28;;;17.99;80.46
71697;BME280;68167;59.120;37.898;2023-07-28T03:04:19;98571.97;;;17.93;80.31
71697;BME280;68167;59.120;37.898;2023-07-28T03:07:11;98589.16;;;18.00;80.05
71697;BME280;68167;59.120;37.898;2023-07-28T03:09:39;98599.16;;;18.00;80.23
71697;BME280;68167;59.120;37.898;2023-07-28T03:12:06;98593.44;;;18.01;80.10
71697;BME280;68167;59.120;37.898;2023-07-28T03:14:33;98583.66;;;17.97;80.37
71697;BME280;68167;59.120;37.898;2023-07-28T03:16:59;98595.78;;;18.03;80.15
71697;BME280;68167;59.120;37.898;2023-07-28T03:19:26;98535.38;;;17.67;80.43
71697;BME280;68167;59.120;37.898;2023-07-28T03:21:52;98597.16;;;18.09;80.50
71697;BME280;68167;59.120;37.898;2023-07-28T03:24:19;98601.53;;;18.14;80.51
71697;BME280;68167;59.120;37.898;2023-07-28T03:26:45;98579.06;;;17.97;80.33
71697;BME280;68167;59.120;37.898;2023-07-28T03:29:12;98590.31;;;18.12;80.69
71697;BME280;68167;59.120;37.898;2023-07-28T03:31:39;98561.44;;;18.00;80.62
71697;BME280;68167;59.120;37.898;2023-07-28T03:34:06;98576.84;;;18.12;80.46
71697;BME280;68167;59.120;37.898;2023-07-28T03:36:32;98586.72;;;18.20;80.41
71697;BME280;68167;59.120;37.898;2023-07-28T03:39:00;98514.97;;;17.78;80.37
71697;BME280;68167;59.120;37.898;2023-07-28T03:41:27;98573.91;;;18.17;80.30
71697;BME280;68167;59.120;37.898;2023-07-28T03:43:54;98577.84;;;18.19;80.54
71697;BME280;68167;59.120;37.898;2023-07-28T03:46:20;98588.38;;;18.24;80.45
71697;BME280;68167;59.120;37.898;2023-07-28T03:48:47;98560.56;;;18.08;80.16
71697;BME280;68167;59.120;37.898;2023-07-28T03:51:13;98595.00;;;18.39;79.87
71697;BME280;68167;59.120;37.898;2023-07-28T03:53:40;98566.94;;;18.28;80.03
71697;BME280;68167;59.120;37.898;2023-07-28T03:56:06;98578.28;;;18.33;80.32
71697;BME280;68167;59.120;37.898;2023-07-28T03:58:33;98560.91;;;18.19;80.52
71697;BME280;68167;59.120;37.898;2023-07-28T04:00:59;98567.94;;;18.35;80.44
71697;BME280;68167;59.120;37.898;2023-07-28T04:03:26;98585.78;;;18.52;80.45
71697;BME280;68167;59.120;37.898;2023-07-28T04:05:53;98572.19;;;18.49;80.45
71697;BME280;68167;59.120;37.898;2023-07-28T04:08:19;98565.13;;;18.56;80.20
71697;BME280;68167;59.120;37.898;2023-07-28T04:10:46;98553.91;;;18.54;80.21
71697;BME280;68167;59.120;37.898;2023-07-28T04:13:12;98550.09;;;18.67;79.60
71697;BME280;68167;59.120;37.898;2023-07-28T04:15:39;98557.50;;;18.70;80.02
71697;BME280;68167;59.120;37.898;2023-07-28T04:18:05;98525.16;;;18.46;80.09
71697;BME280;68167;59.120;37.898;2023-07-28T04:20:32;98517.38;;;18.57;79.89
71697;BME280;68167;59.120;37.898;2023-07-28T04:22:58;98520.66;;;18.62;80.02
71697;BME280;68167;59.120;37.898;2023-07-28T04:25:26;98485.19;;;18.48;79.93
71697;BME280;68167;59.120;37.898;2023-07-28T04:27:52;98539.75;;;18.97;79.98
71697;BME280;68167;59.120;37.898;2023-07-28T04:30:19;98519.09;;;18.89;79.97
71697;BME280;68167;59.120;37.898;2023-07-28T04:32:45;98496.75;;;18.89;79.81
71697;BME280;68167;59.120;37.898;2023-07-28T04:35:17;98508.41;;;18.93;79.74
71697;BME280;68167;59.120;37.898;2023-07-28T04:37:57;98538.09;;;19.21;79.48
71697;BME280;68167;59.120;37.898;2023-07-28T04:40:44;98543.00;;;19.31;79.43
71697;BME280;68167;59.120;37.898;2023-07-28T04:43:13;98540.75;;;19.33;79.19
71697;BME280;68167;59.120;37.898;2023-07-28T04:45:45;98522.53;;;19.30;79.32
71697;BME280;68167;59.120;37.898;2023-07-28T04:48:16;98528.41;;;19.48;79.67
71697;BME280;68167;59.120;37.898;2023-07-28T04:50:44;98493.56;;;19.27;79.00
71697;BME280;68167;59.120;37.898;2023-07-28T04:53:31;98488.84;;;19.24;79.17
71697;BME280;68167;59.120;37.898;2023-07-28T04:56:16;98501.25;;;19.40;79.22
71697;BME280;68167;59.120;37.898;2023-07-28T04:58:43;98479.72;;;19.28;78.95
71697;BME280;68167;59.120;37.898;2023-07-28T05:01:09;98533.50;;;19.65;78.79
71697;BME280;68167;59.120;37.898;2023-07-28T05:03:36;98511.00;;;19.61;78.79
71697;BME280;68167;59.120;37.898;2023-07-28T05:06:18;98514.00;;;19.71;78.58
71697;BME280;68167;59.120;37.898;2023-07-28T05:08:45;98510.50;;;19.71;78.46
71697;BME280;68167;59.120;37.898;2023-07-28T05:11:13;98506.84;;;19.79;78.61
71697;BME280;68167;59.120;37.898;2023-07-28T05:13:40;98488.28;;;19.62;78.25
71697;BME280;68167;59.120;37.898;2023-07-28T05:16:06;98519.31;;;19.84;78.28
71697;BME280;68167;59.120;37.898;2023-07-28T05:18:53;98467.56;;;19.66;78.41
71697;BME280;68167;59.120;37.898;2023-07-28T05:21:48;98446.91;;;19.58;78.07
71697;BME280;68167;59.120;37.898;2023-07-28T05:24:16;98487.69;;;19.84;78.16
71697;BME280;68167;59.120;37.898;2023-07-28T05:26:44;98491.59;;;20.02;77.99
71697;BME280;68167;59.120;37.898;2023-07-28T05:29:11;98511.75;;;20.24;77.84
71697;BME280;68167;59.120;37.898;2023-07-28T05:31:38;98452.13;;;19.98;77.41
71697;BME280;68167;59.120;37.898;2023-07-28T05:34:11;98487.84;;;20.42;77.56
71697;BME280;68167;59.120;37.898;2023-07-28T05:36:39;98477.75;;;20.39;77.02
71697;BME280;68167;59.120;37.898;2023-07-28T05:39:06;98448.19;;;20.30;76.77
71697;BME280;68167;59.120;37.898;2023-07-28T05:41:40;98500.91;;;20.75;76.32
71697;BME280;68167;59.120;37.898;2023-07-28T05:44:10;98502.25;;;20.85;76.05
71697;BME280;68167;59.120;37.898;2023-07-28T05:46:37;98487.50;;;20.82;76.09
71697;BME280;68167;59.120;37.898;2023-07-28T05:49:03;98484.22;;;20.92;76.05
71697;BME280;68167;59.120;37.898;2023-07-28T05:51:30;98478.13;;;20.95;75.76
71697;BME280;68167;59.120;37.898;2023-07-28T05:53:56;98484.88;;;21.05;75.63
71697;BME280;68167;59.120;37.898;2023-07-28T05:56:23;98457.53;;;20.91;75.74
71697;BME280;68167;59.120;37.898;2023-07-28T05:58:50;98489.09;;;21.22;75.41
71697;BME280;68167;59.120;37.898;2023-07-28T06:01:17;98456.25;;;21.04;75.08
71697;BME280;68167;59.120;37.898;2023-07-28T06:04:04;98424.72;;;20.92;75.38
71697;BME280;68167;59.120;37.898;2023-07-28T06:06:34;98456.31;;;21.08;75.04
71697;BME280;68167;59.120;37.898;2023-07-28T06:09:00;98464.84;;;21.10;75.21
71697;BME280;68167;59.120;37.898;2023-07-28T06:11:27;98452.41;;;21.05;74.79
71697;BME280;68167;59.120;37.898;2023-07-28T06:13:54;98485.00;;;21.31;74.86
71697;BME280;68167;59.120;37.898;2023-07-28T06:16:21;98453.72;;;21.15;75.08
71697;BME280;68167;59.120;37.898;2023-07-28T06:18:47;98469.97;;;21.34;75.26
71697;BME280;68167;59.120;37.898;2023-07-28T06:21:18;98519.31;;;21.69;74.92
71697;BME280;68167;59.120;37.898;2023-07-28T06:23:45;98485.00;;;21.54;75.16
71697;BME280;68167;59.120;37.898;2023-07-28T06:26:11;98516.59;;;21.69;74.69
71697;BME280;68167;59.120;37.898;2023-07-28T06:28:40;98510.34;;;21.65;74.61
71697;BME280;68167;59.120;37.898;2023-07-28T06:31:06;98502.16;;;21.62;74.74
71697;BME280;68167;59.120;37.898;2023-07-28T06:33:33;98508.84;;;21.68;74.97
71697;BME280;68167;59.120;37.898;2023-07-28T06:35:59;98508.59;;;21.77;75.11
71697;BME280;68167;59.120;37.898;2023-07-28T06:38:26;98491.91;;;21.75;74.63
71697;BME280;68167;59.120;37.898;2023-07-28T06:40:53;98448.66;;;21.55;74.83
71697;BME280;68167;59.120;37.898;2023-07-28T06:43:19;98482.81;;;21.86;74.21
71697;BME280;68167;59.120;37.898;2023-07-28T06:45:50;98483.25;;;21.88;74.51
71697;BME280;68167;59.120;37.898;2023-07-28T06:48:17;98417.59;;;21.49;74.03
71697;BME280;68167;59.120;37.898;2023-07-28T06:50:44;98437.63;;;21.67;74.63
71697;BME280;68167;59.120;37.898;2023-07-28T06:53:10;98440.75;;;21.69;74.44
71697;BME280;68167;59.120;37.898;2023-07-28T06:55:37;98460.31;;;21.82;74.45
71697;BME280;68167;59.120;37.898;2023-07-28T06:58:05;98469.94;;;21.80;74.79
71697;BME280;68167;59.120;37.898;2023-07-28T07:00:33;98474.63;;;21.83;74.75
71697;BME280;68167;59.120;37.898;2023-07-28T07:03:00;98478.91;;;21.84;74.64
71697;BME280;68167;59.120;37.898;2023-07-28T07:05:27;98469.94;;;21.80;75.10
71697;BME280;68167;59.120;37.898;2023-07-28T07:07:53;98415.53;;;21.39;74.79
71697;BME280;68167;59.120;37.898;2023-07-28T07:10:23;98415.47;;;21.35;75.00
71697;BME280;68167;59.120;37.898;2023-07-28T07:12:49;98474.34;;;21.65;75.28
71697;BME280;68167;59.120;37.898;2023-07-28T07:15:16;98445.03;;;21.48;74.41
71697;BME280;68167;59.120;37.898;2023-07-28T07:17:42;98444.97;;;21.67;74.43
71697;BME280;68167;59.120;37.898;2023-07-28T07:20:09;98431.47;;;21.70;75.09
71697;BME280;68167;59.120;37.898;2023-07-28T07:22:36;98436.22;;;21.77;74.31
71697;BME280;68167;59.120;37.898;2023-07-28T07:25:04;98394.78;;;21.50;74.32
71697;BME280;68167;59.120;37.898;2023-07-28T07:27:32;98446.88;;;21.89;74.73
71697;BME280;68167;59.120;37.898;2023-07-28T07:29:58;98461.91;;;22.10;74.54
71697;BME280;68167;59.120;37.898;2023-07-28T07:32:25;98456.88;;;22.12;74.35
71697;BME280;68167;59.120;37.898;2023-07-28T07:34:51;98455.41;;;22.18;74.73
71697;BME280;68167;59.120;37.898;2023-07-28T07:37:19;98401.69;;;21.97;73.80
71697;BME280;68167;59.120;37.898;2023-07-28T07:39:45;98444.00;;;22.31;73.78
71697;BME280;68167;59.120;37.898;2023-07-28T07:42:12;98448.78;;;22.42;73.81
71697;BME280;68167;59.120;37.898;2023-07-28T07:44:40;98446.44;;;22.40;73.27
71697;BME280;68167;59.120;37.898;2023-07-28T07:47:14;98446.06;;;22.42;73.64
71697;BME280;68167;59.120;37.898;2023-07-28T07:49:41;98431.84;;;22.22;73.89
71697;BME280;68167;59.120;37.898;2023-07-28T07:52:08;98440.31;;;22.17;73.72
71697;BME280;68167;59.120;37.898;2023-07-28T07:54:35;98424.94;;;21.98;74.09
71697;BME280;68167;59.120;37.898;2023-07-28T07:57:03;98435.19;;;22.12;74.05
71697;BME280;68167;59.120;37.898;2023-07-28T07:59:29;98421.50;;;22.01;73.82
71697;BME280;68167;59.120;37.898;2023-07-28T08:01:59;98435.78;;;21.98;74.58
71697;BME280;68167;59.120;37.898;2023-07-28T08:04:28;98413.22;;;21.90;74.57
71697;BME280;68167;59.120;37.898;2023-07-28T08:06:55;98419.34;;;21.87;74.52
71697;BME280;68167;59.120;37.898;2023-07-28T08:09:22;98415.44;;;21.85;74.70
71697;BME280;68167;59.120;37.898;2023-07-28T08:11:48;98418.22;;;21.88;74.73
71697;BME280;68167;59.120;37.898;2023-07-28T08:14:15;98392.53;;;21.79;74.73
71697;BME280;68167;59.120;37.898;2023-07-28T08:16:42;98418.25;;;21.92;75.09
71697;BME280;68167;59.120;37.898;2023-07-28T08:19:08;98382.97;;;21.62;75.48
71697;BME280;68167;59.120;37.898;2023-07-28T08:21:35;98433.06;;;21.98;74.94
71697;BME280;68167;59.120;37.898;2023-07-28T08:24:03;98438.69;;;22.12;75.07
71697;BME280;68167;59.120;37.898;2023-07-28T08:26:30;98454.28;;;22.19;75.21
71697;BME280;68167;59.120;37.898;2023-07-28T08:28:56;98440.97;;;22.10;74.89
71697;BME280;68167;59.120;37.898;2023-07-28T08:31:22;98481.50;;;22.26;74.94
71697;BME280;68167;59.120;37.898;2023-07-28T08:33:48;98458.31;;;22.02;74.26
71697;BME280;68167;59.120;37.898;2023-07-28T08:36:15;98498.31;;;22.12;74.79
71697;BME280;68167;59.120;37.898;2023-07-28T08:38:42;98456.41;;;21.80;74.54
71697;BME280;68167;59.120;37.898;2023-07-28T08:41:08;98475.41;;;21.83;75.26
71697;BME280;68167;59.120;37.898;2023-07-28T08:43:35;98508.88;;;21.94;75.09
71697;BME280;68167;59.120;37.898;2023-07-28T08:46:01;98483.06;;;21.78;75.70
71697;BME280;68167;59.120;37.898;2023-07-28T08:48:29;98480.41;;;21.81;75.10
71697;BME280;68167;59.120;37.898;2023-07-28T08:50:55;98496.44;;;21.90;75.47
71697;BME280;68167;59.120;37.898;2023-07-28T08:53:22;98517.16;;;22.01;75.33
71697;BME280;68167;59.120;37.898;2023-07-28T08:55:48;98496.91;;;21.95;75.34
71697;BME280;68167;59.120;37.898;2023-07-28T08:58:19;98484.38;;;21.87;75.49
71697;BME280;68167;59.120;37.898;2023-07-28T09:00:47;98520.34;;;22.07;75.26
71697;BME280;68167;59.120;37.898;2023-07-28T09:03:18;98472.97;;;21.75;75.40
71697;BME280;68167;59.120;37.898;2023-07-28T09:05:45;98450.88;;;21.50;75.17
71697;BME280;68167;59.120;37.898;2023-07-28T09:08:17;98523.00;;;21.81;75.61
71697;BME280;68167;59.120;37.898;2023-07-28T09:10:48;98497.47;;;21.59;75.67
71697;BME280;68167;59.120;37.898;2023-07-28T09:13:16;98481.75;;;21.45;75.79
71697;BME280;68167;59.120;37.898;2023-07-28T09:15:43;98518.47;;;21.65;76.10
71697;BME280;68167;59.120;37.898;2023-07-28T09:18:12;98520.81;;;21.67;76.01
71697;BME280;68167;59.120;37.898;2023-07-28T09:20:40;98487.44;;;21.36;76.48
71697;BME280;68167;59.120;37.898;2023-07-28T09:23:08;98523.47;;;21.63;76.38
71697;BME280;68167;59.120;37.898;2023-07-28T09:25:36;98482.84;;;21.41;77.10
71697;BME280;68167;59.120;37.898;2023-07-28T09:28:03;98525.88;;;21.68;76.94
71697;BME280;68167;59.120;37.898;2023-07-28T09:30:44;98511.56;;;21.68;77.16
71697;BME280;68167;59.120;37.898;2023-07-28T09:33:11;98475.94;;;21.43;77.03
71697;BME280;68167;59.120;37.898;2023-07-28T09:35:47;98511.38;;;21.80;76.80
71697;BME280;68167;59.120;37.898;2023-07-28T09:38:15;98512.81;;;21.97;77.11
71697;BME280;68167;59.120;37.898;2023-07-28T09:40:42;98502.75;;;22.24;76.71
71697;BME280;68167;59.120;37.898;2023-07-28T09:43:09;98485.22;;;22.44;75.62
71697;BME280;68167;59.120;37.898;2023-07-28T09:45:36;98465.06;;;22.72;75.06
71697;BME280;68167;59.120;37.898;2023-07-28T09:48:05;98494.34;;;23.22;73.88
71697;BME280;68167;59.120;37.898;2023-07-28T09:50:36;98506.38;;;23.62;73.73
71697;BME280;68167;59.120;37.898;2023-07-28T09:53:03;98490.09;;;23.65;73.48
71697;BME280;68167;59.120;37.898;2023-07-28T09:55:30;98524.97;;;24.04;72.62
71697;BME280;68167;59.120;37.898;2023-07-28T09:57:58;98493.84;;;23.94;72.45
71697;BME280;68167;59.120;37.898;2023-07-28T10:00:27;98520.50;;;24.29;72.43
71697;BME280;68167;59.120;37.898;2023-07-28T10:02:54;98486.72;;;24.34;70.88
71697;BME280;68167;59.120;37.898;2023-07-28T10:05:20;98493.81;;;24.53;70.51
71697;BME280;68167;59.120;37.898;2023-07-28T10:07:48;98488.03;;;24.58;69.66
71697;BME280;68167;59.120;37.898;2023-07-28T10:10:15;98534.50;;;24.97;69.72
71697;BME280;68167;59.120;37.898;2023-07-28T10:12:49;98501.38;;;24.91;69.14
71697;BME280;68167;59.120;37.898;2023-07-28T10:15:17;98522.16;;;25.28;69.07
71697;BME280;68167;59.120;37.898;2023-07-28T10:17:46;98516.28;;;25.37;67.73
71697;BME280;68167;59.120;37.898;2023-07-28T10:20:34;98508.53;;;25.46;68.51
71697;BME280;68167;59.120;37.898;2023-07-28T10:23:03;98499.19;;;25.54;67.68
71697;BME280;68167;59.120;37.898;2023-07-28T10:25:35;98459.84;;;25.41;67.21
71697;BME280;68167;59.120;37.898;2023-07-28T10:28:03;98474.66;;;25.57;67.68
71697;BME280;68167;59.120;37.898;2023-07-28T10:30:35;98418.97;;;25.05;67.88
71697;BME280;68167;59.120;37.898;2023-07-28T10:33:03;98443.09;;;25.03;67.58
71697;BME280;68167;59.120;37.898;2023-07-28T10:35:29;98463.31;;;25.06;67.70
71697;BME280;68167;59.120;37.898;2023-07-28T10:37:58;98390.47;;;24.63;67.78
71697;BME280;68167;59.120;37.898;2023-07-28T10:40:44;98452.03;;;25.04;68.19
71697;BME280;68167;59.120;37.898;2023-07-28T10:43:11;98447.38;;;25.08;68.14
71697;BME280;68167;59.120;37.898;2023-07-28T10:45:37;98431.44;;;25.17;68.60
71697;BME280;68167;59.120;37.898;2023-07-28T10:48:03;98454.41;;;25.41;68.13
71697;BME280;68167;59.120;37.898;2023-07-28T10:50:31;98405.34;;;25.12;67.82
71697;BME280;68167;59.120;37.898;2023-07-28T10:53:00;98440.41;;;25.24;67.25
71697;BME280;68167;59.120;37.898;2023-07-28T10:55:28;98471.91;;;25.36;67.91
71697;BME280;68167;59.120;37.898;2023-07-28T10:57:55;98438.03;;;25.02;67.52
71697;BME280;68167;59.120;37.898;2023-07-28T11:00:22;98459.03;;;24.98;68.10
71697;BME280;68167;59.120;37.898;2023-07-28T11:02:53;98443.34;;;24.77;68.60
71697;BME280;68167;59.120;37.898;2023-07-28T11:05:28;98446.44;;;24.65;69.62
71697;BME280;68167;59.120;37.898;2023-07-28T11:07:56;98463.16;;;24.59;69.72
71697;BME280;68167;59.120;37.898;2023-07-28T11:10:23;98480.22;;;24.53;70.33
71697;BME280;68167;59.120;37.898;2023-07-28T11:12:51;98470.81;;;24.40;70.60
71697;BME280;68167;59.120;37.898;2023-07-28T11:15:18;98497.97;;;24.33;70.28
71697;BME280;68167;59.120;37.898;2023-07-28T11:17:49;98491.25;;;24.16;70.72
71697;BME280;68167;59.120;37.898;2023-07-28T11:22:52;98451.69;;;23.67;71.77
71697;BME280;68167;59.120;37.898;2023-07-28T11:25:27;98459.81;;;23.67;71.81
71697;BME280;68167;59.120;37.898;2023-07-28T11:27:54;98464.75;;;23.54;72.29
71697;BME280;68167;59.120;37.898;2023-07-28T11:30:21;98439.69;;;23.27;72.58
71697;BME280;68167;59.120;37.898;2023-07-28T11:32:52;98481.34;;;23.46;73.32
71697;BME280;68167;59.120;37.898;2023-07-28T11:35:20;98478.59;;;23.39;73.43
71697;BME280;68167;59.120;37.898;2023-07-28T11:37:49;98488.34;;;23.47;73.44
71697;BME280;68167;59.120;37.898;2023-07-28T11:40:22;98456.81;;;23.35;73.70
71697;BME280;68167;59.120;37.898;2023-07-28T11:42:51;98484.97;;;23.57;73.91
71697;BME280;68167;59.120;37.898;2023-07-28T11:45:19;98419.78;;;23.16;73.71
71697;BME280;68167;59.120;37.898;2023-07-28T11:50:26;98486.44;;;23.51;73.60
71697;BME280;68167;59.120;37.898;2023-07-28T11:52:53;98494.75;;;23.65;73.43
71697;BME280;68167;59.120;37.898;2023-07-28T11:55:19;98493.16;;;23.60;73.68
71697;BME280;68167;59.120;37.898;2023-07-28T11:57:47;98498.63;;;23.64;73.35
71697;BME280;68167;59.120;37.898;2023-07-28T12:00:14;98497.13;;;23.70;73.29
71697;BME280;68167;59.120;37.898;2023-07-28T12:02:44;98490.91;;;23.70;73.43
71697;BME280;68167;59.120;37.898;2023-07-28T12:05:15;98503.41;;;23.78;73.21
71697;BME280;68167;59.120;37.898;2023-07-28T12:07:47;98474.16;;;23.64;73.13
71697;BME280;68167;59.120;37.898;2023-07-28T12:10:14;98444.53;;;23.52;73.06
71697;BME280;68167;59.120;37.898;2023-07-28T12:12:47;98503.97;;;24.01;73.00
71697;BME280;68167;59.120;37.898;2023-07-28T12:18:07;98482.06;;;23.80;73.07
71697;BME280;68167;59.120;37.898;2023-07-28T12:23:01;98497.22;;;23.81;73.06
71697;BME280;68167;59.120;37.898;2023-07-28T12:25:29;98510.13;;;23.91;72.85
71697;BME280;68167;59.120;37.898;2023-07-28T12:27:55;98498.06;;;23.88;72.88
71697;BME280;68167;59.120;37.898;2023-07-28T12:30:22;98505.88;;;23.93;72.76
71697;BME280;68167;59.120;37.898;2023-07-28T12:32:48;98446.63;;;23.65;72.29
71697;BME280;68167;59.120;37.898;2023-07-28T12:35:14;98503.78;;;24.27;72.27
71697;BME280;68167;59.120;37.898;2023-07-28T12:37:41;98499.19;;;24.39;71.68
71697;BME280;68167;59.120;37.898;2023-07-28T12:40:08;98444.66;;;24.21;71.57
71697;BME280;68167;59.120;37.898;2023-07-28T12:42:34;98502.06;;;24.71;71.00
71697;BME280;68167;59.120;37.898;2023-07-28T12:45:00;98506.03;;;24.94;69.68
71697;BME280;68167;59.120;37.898;2023-07-28T12:47:26;98491.34;;;25.10;68.70
71697;BME280;68167;59.120;37.898;2023-07-28T12:49:53;98461.78;;;25.15;69.29
71697;BME280;68167;59.120;37.898;2023-07-28T12:52:19;98500.81;;;25.83;68.33
71697;BME280;68167;59.120;37.898;2023-07-28T12:54:51;98489.47;;;26.06;67.65
71697;BME280;68167;59.120;37.898;2023-07-28T12:57:17;98500.00;;;26.33;66.00
71697;BME280;68167;59.120;37.898;2023-07-28T12:59:44;98494.91;;;26.27;65.74
71697;BME280;68167;59.120;37.898;2023-07-28T13:02:10;98481.66;;;26.15;65.12
71697;BME280;68167;59.120;37.898;2023-07-28T13:04:36;98498.44;;;26.10;64.92
71697;BME280;68167;59.120;37.898;2023-07-28T13:07:03;98475.88;;;25.74;65.35